Time;durP1;ratioP1;P1;durP2;ratioP2;P2;SDS_P1;SDS_P2;PMS_P1;PMS_P2;Temp;Humidity;BMP_temperature;BMP_pressure;BME280_temperature;BME280_humidity;BME280_pressure;Samples;Min_cycle;Max_cycle;Signal;HPM_P1;HPM_P2
2021/09/25 00:02:32;;;;;;;0.82;0.73;;;16.30;70.30;;;;;;4978705;28;98199;-51
2021/09/25 00:05:07;;;;;;;2.88;0.93;;;16.20;70.30;;;;;;4991278;28;95630;-51
2021/09/25 00:07:38;;;;;;;3.50;1.30;;;16.20;70.20;;;;;;4990133;28;95612;-49
2021/09/25 00:10:09;;;;;;;2.88;1.23;;;16.20;70.20;;;;;;4983614;28;96846;-48
2021/09/25 00:12:39;;;;;;;;;;;16.20;70.10;;;;;;4989702;28;95831;-49
2021/09/25 00:15:11;;;;;;;1.73;0.80;;;16.20;70.10;;;;;;5023931;27;95804;-49
2021/09/25 00:17:45;;;;;;;1.48;0.90;;;16.20;70.10;;;;;;4994191;28;95665;-50
2021/09/25 00:20:19;;;;;;;3.45;1.20;;;16.20;70.10;;;;;;4998243;28;95778;-49
2021/09/25 00:22:50;;;;;;;1.25;0.80;;;16.20;70.10;;;;;;4990375;28;96004;-50
2021/09/25 00:25:20;;;;;;;2.43;0.87;;;16.20;69.90;;;;;;4991270;28;95673;-49
2021/09/25 00:27:51;;;;;;;1.10;1.00;;;16.20;70.00;;;;;;4995075;28;95402;-51
2021/09/25 00:30:22;;;;;;;2.13;0.85;;;16.20;69.90;;;;;;4979997;28;97277;-48
2021/09/25 00:32:53;;;;;;;1.40;0.75;;;16.20;69.90;;;;;;4989303;28;95835;-49
2021/09/25 00:35:23;;;;;;;0.93;0.70;;;16.20;69.90;;;;;;4990219;28;95898;-48
2021/09/25 00:37:54;;;;;;;2.33;1.02;;;16.20;69.90;;;;;;4986075;28;95779;-48
2021/09/25 00:40:28;;;;;;;3.50;0.90;;;16.20;69.90;;;;;;4983613;28;96847;-50
2021/09/25 00:42:58;;;;;;;3.10;1.33;;;16.20;69.80;;;;;;4985003;28;96067;-47
2021/09/25 00:45:28;;;;;;;1.25;0.75;;;16.20;69.80;;;;;;4983776;28;98496;-51
2021/09/25 00:47:59;;;;;;;2.50;0.70;;;16.20;69.80;;;;;;5020700;27;95324;-49
2021/09/25 00:50:30;;;;;;;2.15;0.85;;;16.20;69.90;;;;;;5020095;27;98042;-49
2021/09/25 00:53:01;;;;;;;1.20;0.88;;;16.20;69.80;;;;;;4986398;28;95457;-51
2021/09/25 00:55:32;;;;;;;2.00;0.80;;;16.20;69.80;;;;;;4989855;28;95759;-51
2021/09/25 00:58:05;;;;;;;2.07;1.10;;;16.30;69.90;;;;;;4988897;28;95634;-49
2021/09/25 01:00:37;;;;;;;1.60;0.90;;;16.20;69.70;;;;;;4981676;28;96134;-49
2021/09/25 01:03:08;;;;;;;2.97;1.45;;;16.20;62.70;;;;;;4983350;28;95778;-52
2021/09/25 01:05:44;;;;;;;2.00;0.85;;;16.30;69.70;;;;;;4978721;28;96259;-49
2021/09/25 01:08:15;;;;;;;5.43;1.25;;;16.30;69.70;;;;;;4980792;28;95813;-52
2021/09/25 01:10:47;;;;;;;3.70;1.33;;;16.20;69.70;;;;;;4979363;28;97136;-51
2021/09/25 01:13:20;;;;;;;1.48;0.75;;;16.20;69.60;;;;;;4989265;28;95668;-50
2021/09/25 01:15:51;;;;;;;2.90;0.80;;;16.20;69.60;;;;;;4974806;28;95768;-55
2021/09/25 01:18:22;;;;;;;2.05;0.90;;;16.20;69.60;;;;;;4981732;28;95288;-51
2021/09/25 01:20:53;;;;;;;2.93;0.80;;;16.30;69.60;;;;;;4985098;28;95955;-49
2021/09/25 01:23:24;;;;;;;1.45;0.90;;;16.20;69.60;;;;;;4976825;28;96021;-54
2021/09/25 01:25:54;;;;;;;1.30;0.70;;;16.20;69.60;;;;;;4979215;28;97589;-51
2021/09/25 01:28:25;;;;;;;2.78;1.00;;;16.20;69.60;;;;;;4989218;28;96012;-56
2021/09/25 01:30:57;;;;;;;2.00;0.80;;;16.30;69.70;;;;;;4981334;28;97592;-53
2021/09/25 01:33:29;;;;;;;1.45;1.00;;;16.30;69.60;;;;;;4980895;28;95574;-51
2021/09/25 01:35:59;;;;;;;2.97;1.00;;;16.30;69.50;;;;;;4998687;28;95295;-63
2021/09/25 01:38:30;;;;;;;3.75;0.90;;;16.30;69.50;;;;;;4987416;28;95851;-61
2021/09/25 01:41:01;;;;;;;2.22;1.02;;;16.30;69.50;;;;;;4988756;28;96068;-51
2021/09/25 01:43:32;;;;;;;2.15;0.80;;;16.30;69.40;;;;;;4975531;28;95870;-53
2021/09/25 01:46:03;;;;;;;2.03;1.45;;;16.40;60.00;;;;;;4976494;28;95909;-53
2021/09/25 01:48:33;;;;;;;;;;;16.30;69.30;;;;;;4978523;28;95815;-52
2021/09/25 01:51:05;;;;;;;2.05;0.80;;;16.30;69.30;;;;;;4984392;28;95927;-52
2021/09/25 01:53:36;;;;;;;1.05;0.77;;;16.30;69.90;;;;;;5017958;27;98676;-55
2021/09/25 01:56:11;;;;;;;2.10;0.90;;;16.40;69.30;;;;;;4986345;28;95791;-53
2021/09/25 01:58:43;;;;;;;0.77;0.70;;;16.30;69.20;;;;;;4984393;28;95906;-53
2021/09/25 02:01:14;;;;;;;1.27;0.93;;;16.30;69.40;;;;;;5006597;27;98735;-52
2021/09/25 02:03:46;;;;;;;0.90;0.70;;;16.30;69.10;;;;;;5014487;27;95788;-53
2021/09/25 02:06:18;;;;;;;1.95;0.70;;;16.40;69.00;;;;;;4982972;28;95966;-53
2021/09/25 02:08:50;;;;;;;2.10;1.00;;;16.40;68.70;;;;;;4971850;28;96114;-52
2021/09/25 02:11:23;;;;;;;1.10;0.80;;;16.40;68.70;;;;;;4980867;28;96956;-54
2021/09/25 02:13:54;;;;;;;1.48;0.80;;;16.30;68.60;;;;;;4986815;28;95853;-56
2021/09/25 02:16:28;;;;;;;1.10;1.00;;;16.30;69.20;;;;;;4981809;28;95649;-56
2021/09/25 02:18:59;;;;;;;2.22;1.00;;;16.30;68.60;;;;;;4988342;28;95815;-52
2021/09/25 02:21:31;;;;;;;1.23;0.70;;;16.30;68.60;;;;;;4980805;28;95890;-51
2021/09/25 02:24:01;;;;;;;1.30;0.70;;;16.30;68.60;;;;;;4983705;28;95388;-53
2021/09/25 02:26:33;;;;;;;1.80;0.90;;;16.40;68.60;;;;;;4985910;28;96928;-53
2021/09/25 02:29:04;;;;;;;1.80;0.75;;;16.30;68.60;;;;;;4988169;28;96182;-54
2021/09/25 02:31:37;;;;;;;2.80;1.05;;;16.40;68.50;;;;;;4981452;28;95899;-54
2021/09/25 02:34:07;;;;;;;1.58;0.98;;;16.40;68.50;;;;;;4986144;28;95632;-52
2021/09/25 02:36:37;;;;;;;2.15;1.25;;;16.30;68.50;;;;;;4988295;28;95886;-48
2021/09/25 02:39:08;;;;;;;1.45;1.30;;;16.30;68.60;;;;;;4988365;28;95953;-49
2021/09/25 02:41:39;;;;;;;1.30;1.20;;;16.40;69.00;;;;;;4986868;28;95956;-47
2021/09/25 02:44:09;;;;;;;2.43;1.20;;;16.30;69.00;;;;;;4986113;28;96070;-48
2021/09/25 02:46:40;;;;;;;2.87;1.20;;;16.30;69.20;;;;;;4983786;28;95612;-53
2021/09/25 02:49:11;;;;;;;3.88;1.13;;;16.30;69.40;;;;;;4987873;28;95978;-51
2021/09/25 02:51:42;;;;;;;1.48;1.10;;;16.30;69.40;;;;;;4988816;28;96557;-51
2021/09/25 02:54:14;;;;;;;8.57;1.75;;;16.30;69.40;;;;;;4983168;28;95986;-47
2021/09/25 02:56:45;;;;;;;;;;;16.30;69.40;;;;;;4988739;28;95682;-49
2021/09/25 02:59:16;;;;;;;2.63;1.20;;;16.30;69.20;;;;;;5018493;27;97776;-48
2021/09/25 03:01:47;;;;;;;2.60;1.20;;;16.30;69.20;;;;;;4962340;28;95994;-55
2021/09/25 03:04:19;;;;;;;2.20;1.20;;;16.30;69.20;;;;;;4971302;28;96294;-54
2021/09/25 03:06:51;;;;;;;1.77;1.27;;;16.40;69.90;;;;;;4983777;28;95801;-50
2021/09/25 03:09:22;;;;;;;1.43;1.00;;;16.40;70.10;;;;;;4973501;28;95777;-51
2021/09/25 03:11:54;;;;;;;0.98;0.88;;;16.40;70.30;;;;;;4979547;28;96017;-50
2021/09/25 03:14:25;;;;;;;1.58;0.75;;;16.60;70.40;;;;;;4981284;28;95831;-53
2021/09/25 03:16:56;;;;;;;1.38;0.88;;;16.60;70.20;;;;;;4973725;28;95842;-51
2021/09/25 03:19:27;;;;;;;2.33;1.20;;;16.70;70.60;;;;;;4982879;28;95962;-54
2021/09/25 03:21:58;;;;;;;1.40;1.02;;;16.70;69.80;;;;;;4985421;28;95849;-55
2021/09/25 03:24:28;;;;;;;1.17;0.68;;;16.80;69.80;;;;;;4985293;28;96165;-50
2021/09/25 03:27:00;;;;;;;1.88;0.80;;;16.80;60.10;;;;;;4986552;28;95971;-52
2021/09/25 03:29:31;;;;;;;2.73;0.90;;;16.80;69.60;;;;;;4986741;28;95837;-52
2021/09/25 03:32:03;;;;;;;2.05;1.10;;;16.80;69.30;;;;;;4979127;28;96260;-53
2021/09/25 03:34:33;;;;;;;4.03;1.63;;;16.80;69.30;;;;;;4981124;28;95883;-52
2021/09/25 03:37:03;;;;;;;3.40;1.80;;;16.80;69.20;;;;;;4975904;28;95623;-49
2021/09/25 03:39:34;;;;;;;4.22;1.65;;;16.90;69.30;;;;;;5005428;27;96108;-52
2021/09/25 03:42:05;;;;;;;5.65;1.80;;;16.90;69.20;;;;;;4982432;28;96464;-53
2021/09/25 03:44:35;;;;;;;7.47;2.63;;;16.90;69.10;;;;;;4984998;28;96297;-54
2021/09/25 03:47:06;;;;;;;3.90;2.47;;;16.90;69.20;;;;;;4971986;28;97187;-55
2021/09/25 03:49:38;;;;;;;3.88;2.30;;;16.90;69.10;;;;;;4980822;28;95853;-51
2021/09/25 03:52:09;;;;;;;6.28;3.00;;;16.90;69.00;;;;;;4985861;28;96358;-52
2021/09/25 03:54:40;;;;;;;;;;;16.90;69.00;;;;;;4983431;28;95595;-55
2021/09/25 03:57:11;;;;;;;3.70;2.50;;;16.90;68.90;;;;;;4985694;28;95673;-53
2021/09/25 03:59:46;;;;;;;5.03;2.88;;;17.00;68.90;;;;;;4981882;28;98114;-54
2021/09/25 04:02:17;;;;;;;3.70;2.67;;;17.00;68.90;;;;;;4975651;28;96675;-53
2021/09/25 04:04:48;;;;;;;4.47;2.67;;;17.00;68.80;;;;;;4984045;28;95311;-51
2021/09/25 04:07:20;;;;;;;3.90;2.85;;;17.00;68.70;;;;;;4982392;28;96159;-54
2021/09/25 04:09:51;;;;;;;4.87;3.10;;;17.10;59.30;;;;;;4977017;28;95974;-53
2021/09/25 04:12:23;;;;;;;7.30;3.22;;;17.10;68.70;;;;;;4982251;28;95799;-54
2021/09/25 04:14:54;;;;;;;8.40;3.28;;;17.10;68.70;;;;;;4980455;28;96251;-54
2021/09/25 04:17:25;;;;;;;3.17;2.35;;;17.00;68.50;;;;;;4982809;28;95568;-53
2021/09/25 04:19:56;;;;;;;5.40;2.72;;;17.10;68.40;;;;;;4985689;28;95853;-55
2021/09/25 04:22:28;;;;;;;5.25;3.35;;;17.10;68.30;;;;;;4982555;28;98360;-53
2021/09/25 04:24:59;;;;;;;8.18;3.60;;;17.10;68.40;;;;;;4978553;28;95857;-50
2021/09/25 04:27:29;;;;;;;8.57;3.97;;;17.10;68.30;;;;;;4976950;28;95691;-52
2021/09/25 04:30:03;;;;;;;9.98;3.60;;;17.20;68.30;;;;;;4981890;28;95908;-50
2021/09/25 04:32:34;;;;;;;6.28;3.22;;;17.20;68.40;;;;;;4982523;28;95889;-54
2021/09/25 04:35:06;;;;;;;6.10;3.67;;;17.20;68.20;;;;;;4984054;28;96136;-54
2021/09/25 04:37:38;;;;;;;4.50;3.28;;;17.20;68.20;;;;;;4982551;28;96142;-53
2021/09/25 04:40:10;;;;;;;6.85;4.35;;;17.30;68.10;;;;;;4981498;28;96106;-53
2021/09/25 04:42:42;;;;;;;6.57;4.13;;;17.20;68.70;;;;;;4981426;28;97351;-54
2021/09/25 04:45:13;;;;;;;8.43;4.47;;;17.30;68.00;;;;;;4980210;28;98776;-54
2021/09/25 04:47:45;;;;;;;6.10;4.17;;;17.30;68.20;;;;;;4981424;28;95696;-51
2021/09/25 04:50:16;;;;;;;7.60;4.82;;;17.30;68.20;;;;;;4982870;28;95961;-50
2021/09/25 04:52:47;;;;;;;11.07;4.95;;;17.30;68.20;;;;;;4982437;28;96575;-50
2021/09/25 04:55:19;;;;;;;7.85;5.25;;;17.30;68.30;;;;;;4981815;28;95411;-52
2021/09/25 04:57:49;;;;;;;9.37;4.97;;;17.30;68.30;;;;;;4982741;28;95490;-54
2021/09/25 05:00:20;;;;;;;6.07;4.32;;;17.30;68.50;;;;;;4981906;28;95788;-50
2021/09/25 05:02:51;;;;;;;7.30;4.63;;;17.30;68.40;;;;;;4978785;28;102268;-53
2021/09/25 05:05:23;;;;;;;9.05;4.47;;;17.30;68.40;;;;;;4978250;28;96316;-53
2021/09/25 05:07:54;;;;;;;;;;;17.30;68.50;;;;;;4981259;28;95816;-53
2021/09/25 05:10:27;;;;;;;8.93;4.55;;;17.30;68.50;;;;;;4978941;28;96339;-52
2021/09/25 05:12:58;;;;;;;9.57;4.72;;;17.30;68.60;;;;;;5010934;27;96550;-54
2021/09/25 05:15:29;;;;;;;;;;;17.30;68.60;;;;;;4978855;28;95317;-53
2021/09/25 05:17:59;;;;;;;7.18;4.82;;;17.30;68.60;;;;;;4976416;28;95404;-52
2021/09/25 05:20:31;;;;;;;9.52;4.35;;;17.30;68.60;;;;;;4989092;28;95521;-48
2021/09/25 05:23:02;;;;;;;6.43;3.90;;;17.30;68.90;;;;;;4988290;28;96345;-49
2021/09/25 05:25:33;;;;;;;8.15;4.40;;;17.30;69.20;;;;;;4985003;28;95806;-52
2021/09/25 05:28:04;;;;;;;10.15;5.25;;;17.20;69.40;;;;;;4985655;28;95707;-53
2021/09/25 05:30:35;;;;;;;6.38;4.50;;;17.20;69.20;;;;;;4981947;28;96300;-49
2021/09/25 05:33:07;;;;;;;8.80;5.22;;;17.10;69.30;;;;;;4986601;28;102419;-50
2021/09/25 05:35:38;;;;;;;6.93;4.07;;;17.10;69.40;;;;;;4987057;28;97573;-49
2021/09/25 05:38:08;;;;;;;;;;;17.10;69.60;;;;;;4989073;28;95376;-50
2021/09/25 05:40:38;;;;;;;4.63;3.92;;;17.00;69.50;;;;;;4989607;28;95664;-49
2021/09/25 05:43:08;;;;;;;5.50;3.80;;;17.00;69.50;;;;;;4986982;28;96621;-52
2021/09/25 05:45:38;;;;;;;5.00;3.42;;;17.00;69.40;;;;;;4980970;28;96005;-50
2021/09/25 05:48:09;;;;;;;8.63;4.50;;;17.00;69.40;;;;;;5019050;28;96493;-52
2021/09/25 05:50:41;;;;;;;5.28;3.58;;;17.00;69.40;;;;;;4988198;28;96189;-49
2021/09/25 05:53:12;;;;;;;5.97;3.70;;;17.00;69.40;;;;;;4985638;28;95815;-51
2021/09/25 05:55:42;;;;;;;5.68;3.60;;;17.00;69.50;;;;;;4987633;28;96232;-49
2021/09/25 05:58:13;;;;;;;8.10;4.93;;;16.90;69.60;;;;;;4989023;28;95723;-47
2021/09/25 06:00:44;;;;;;;;;;;16.90;69.60;;;;;;4984116;28;95353;-49
2021/09/25 06:03:15;;;;;;;4.43;3.50;;;16.80;69.50;;;;;;4987902;28;96039;-49
2021/09/25 06:05:48;;;;;;;4.97;3.83;;;16.90;69.60;;;;;;5000692;28;95835;-50
2021/09/25 06:08:20;;;;;;;4.68;3.10;;;16.80;69.60;;;;;;4984403;28;96094;-50
2021/09/25 06:10:54;;;;;;;5.80;3.08;;;16.80;69.60;;;;;;4983675;28;95812;-50
2021/09/25 06:13:25;;;;;;;4.93;3.42;;;16.80;69.60;;;;;;4987918;28;95886;-49
2021/09/25 06:15:56;;;;;;;6.13;3.50;;;16.80;69.70;;;;;;4982215;28;95935;-50
2021/09/25 06:18:28;;;;;;;6.30;3.75;;;16.80;69.70;;;;;;4988165;28;95908;-48
2021/09/25 06:20:59;;;;;;;6.23;4.50;;;16.80;69.80;;;;;;4986352;28;96084;-49
2021/09/25 06:23:30;;;;;;;4.03;2.78;;;16.80;69.80;;;;;;5018631;27;95924;-49
2021/09/25 06:26:03;;;;;;;5.32;3.00;;;16.70;69.70;;;;;;4987552;28;95851;-48
2021/09/25 06:28:35;;;;;;;5.75;3.40;;;16.70;69.80;;;;;;4988569;28;95590;-50
2021/09/25 06:31:05;;;;;;;8.52;3.50;;;16.70;69.80;;;;;;5010139;27;95613;-49
2021/09/25 06:33:39;;;;;;;5.15;3.75;;;16.70;60.50;;;;;;4987482;28;96639;-48
2021/09/25 06:36:09;;;;;;;4.78;2.92;;;16.70;69.70;;;;;;4985192;28;95435;-51
2021/09/25 06:38:39;;;;;;;5.13;3.45;;;16.60;69.60;;;;;;4987888;28;95930;-49
2021/09/25 06:41:09;;;;;;;4.40;3.25;;;16.60;69.70;;;;;;4988232;28;96217;-50
2021/09/25 06:43:38;;;;;;;3.67;3.08;;;16.60;69.70;;;;;;4987666;28;96012;-49
2021/09/25 06:46:09;;;;;;;3.92;3.25;;;16.60;69.70;;;;;;4982963;28;95994;-50
2021/09/25 06:48:39;;;;;;;4.17;2.80;;;16.60;69.70;;;;;;4988090;28;96147;-52
2021/09/25 06:51:12;;;;;;;6.20;2.90;;;16.50;69.70;;;;;;4985539;28;95745;-54
2021/09/25 06:53:42;;;;;;;4.63;2.88;;;16.50;69.70;;;;;;4985356;28;95986;-50
2021/09/25 06:56:13;;;;;;;5.53;2.90;;;16.50;69.70;;;;;;4989927;28;96027;-48
2021/09/25 06:58:45;;;;;;;4.45;2.58;;;16.50;69.80;;;;;;4990964;28;95534;-48
2021/09/25 07:01:16;;;;;;;3.55;2.97;;;16.50;69.70;;;;;;4986520;28;95804;-50
2021/09/25 07:03:48;;;;;;;7.28;3.05;;;16.50;69.70;;;;;;4985831;28;96035;-49
2021/09/25 07:06:20;;;;;;;7.15;3.30;;;16.50;69.50;;;;;;4987033;28;96536;-50
2021/09/25 07:08:50;;;;;;;;;;;16.50;69.50;;;;;;4988923;28;95968;-48
2021/09/25 07:11:21;;;;;;;6.32;2.30;;;16.50;69.50;;;;;;4983909;28;96009;-49
2021/09/25 07:13:52;;;;;;;6.85;2.80;;;16.60;69.50;;;;;;4990489;28;96467;-48
2021/09/25 07:16:23;;;;;;;2.42;1.92;;;16.60;69.50;;;;;;4993391;28;95415;-49
2021/09/25 07:18:54;;;;;;;8.57;2.63;;;16.60;69.50;;;;;;4990125;28;95587;-48
2021/09/25 07:21:25;;;;;;;4.43;2.13;;;16.70;69.40;;;;;;4991249;28;96021;-48
2021/09/25 07:23:56;;;;;;;4.47;2.20;;;16.70;69.40;;;;;;4985418;28;95909;-48
2021/09/25 07:26:27;;;;;;;3.13;1.60;;;16.80;69.30;;;;;;4989259;28;95767;-56
2021/09/25 07:28:59;;;;;;;2.38;1.65;;;16.80;69.20;;;;;;4989857;28;95302;-50
2021/09/25 07:31:30;;;;;;;3.10;1.92;;;16.80;69.10;;;;;;4984651;28;95860;-51
2021/09/25 07:34:01;;;;;;;4.38;2.05;;;16.80;69.00;;;;;;4988306;28;95899;-48
2021/09/25 07:36:31;;;;;;;2.55;1.70;;;16.80;68.90;;;;;;4990068;28;95900;-49
2021/09/25 07:39:01;;;;;;;3.60;1.90;;;16.80;69.20;;;;;;4986669;28;95172;-51
2021/09/25 07:41:31;;;;;;;4.45;2.28;;;16.80;69.00;;;;;;4990766;28;95838;-49
2021/09/25 07:44:01;;;;;;;3.10;2.20;;;16.80;69.00;;;;;;4988263;28;97003;-50
2021/09/25 07:46:31;;;;;;;3.67;2.20;;;16.80;69.00;;;;;;4982287;28;95596;-49
2021/09/25 07:49:03;;;;;;;4.10;1.80;;;16.80;69.00;;;;;;4988869;28;95951;-50
2021/09/25 07:51:34;;;;;;;4.22;2.45;;;16.80;69.00;;;;;;4990383;28;95756;-48
2021/09/25 07:54:06;;;;;;;3.10;1.38;;;16.80;68.90;;;;;;4987099;28;95862;-49
2021/09/25 07:56:37;;;;;;;4.50;2.22;;;16.80;68.90;;;;;;4990686;28;96139;-50
2021/09/25 07:59:08;;;;;;;;;;;16.80;69.10;;;;;;4989720;28;95312;-51
2021/09/25 08:01:40;;;;;;;3.38;2.00;;;16.80;69.00;;;;;;4985797;28;95703;-51
2021/09/25 08:04:12;;;;;;;3.38;2.03;;;16.80;68.90;;;;;;4990127;28;97871;-51
2021/09/25 08:06:44;;;;;;;2.08;1.67;;;16.80;68.90;;;;;;4989167;28;96287;-50
2021/09/25 08:09:15;;;;;;;3.10;1.63;;;16.80;68.90;;;;;;4986049;28;96333;-51
2021/09/25 08:11:47;;;;;;;3.15;2.35;;;16.80;68.90;;;;;;4983961;28;95382;-52
2021/09/25 08:14:18;;;;;;;3.85;1.92;;;16.80;68.90;;;;;;4988094;28;95857;-48
2021/09/25 08:16:51;;;;;;;2.63;1.60;;;16.70;68.80;;;;;;4983300;28;95614;-49
2021/09/25 08:19:22;;;;;;;2.80;1.83;;;16.80;68.90;;;;;;4989807;28;96179;-50
2021/09/25 08:21:53;;;;;;;3.42;1.90;;;16.80;68.90;;;;;;4990344;28;95702;-50
2021/09/25 08:24:24;;;;;;;3.28;1.90;;;16.80;68.90;;;;;;4989804;28;96311;-49
2021/09/25 08:26:55;;;;;;;2.67;1.63;;;16.80;68.90;;;;;;4988430;28;95873;-49
2021/09/25 08:29:27;;;;;;;2.33;1.70;;;16.90;68.80;;;;;;4989722;28;95570;-49
2021/09/25 08:31:58;;;;;;;2.97;2.05;;;17.00;68.80;;;;;;4984302;28;95742;-49
2021/09/25 08:34:28;;;;;;;1.92;1.50;;;17.00;68.70;;;;;;4987281;28;95928;-58
2021/09/25 08:36:58;;;;;;;3.45;2.28;;;17.00;68.80;;;;;;4988886;28;96261;-49
2021/09/25 08:39:28;;;;;;;1.90;1.38;;;17.10;68.90;;;;;;4989767;28;95736;-50
2021/09/25 08:41:59;;;;;;;2.78;2.17;;;17.10;69.20;;;;;;4988622;28;95621;-50
2021/09/25 08:44:31;;;;;;;3.05;2.25;;;17.20;69.60;;;;;;4988992;28;96009;-49
2021/09/25 08:47:02;;;;;;;3.37;2.20;;;17.20;70.00;;;;;;4984241;28;95592;-50
2021/09/25 08:49:33;;;;;;;3.83;2.30;;;17.20;70.50;;;;;;4988208;28;96218;-50
2021/09/25 08:52:04;;;;;;;5.15;2.10;;;17.20;70.70;;;;;;4985667;28;95751;-48
2021/09/25 08:54:36;;;;;;;4.68;2.55;;;17.20;70.90;;;;;;4987291;28;96417;-50
2021/09/25 08:57:07;;;;;;;6.07;2.87;;;17.20;71.20;;;;;;4985985;28;95344;-51
2021/09/25 08:59:39;;;;;;;6.13;1.80;;;17.20;71.50;;;;;;4989860;28;95828;-52
2021/09/25 09:02:13;;;;;;;4.78;2.40;;;17.20;71.60;;;;;;4984137;28;95478;-49
2021/09/25 09:04:56;;;;;;;3.92;2.20;;;17.30;62.50;;;;;;4986338;28;96374;-50
2021/09/25 09:07:29;;;;;;;2.95;2.03;;;17.20;71.50;;;;;;4986345;28;95401;-52
2021/09/25 09:10:00;;;;;;;3.80;1.90;;;17.20;71.50;;;;;;4987664;28;95838;-50
2021/09/25 09:12:36;;;;;;;4.35;2.30;;;17.10;71.30;;;;;;4982287;28;95924;-51
2021/09/25 09:15:09;;;;;;;4.22;2.30;;;17.10;71.20;;;;;;4988995;28;95902;-51
2021/09/25 09:17:44;;;;;;;3.20;1.90;;;17.10;71.10;;;;;;4984384;28;95597;-51
2021/09/25 09:20:15;;;;;;;2.30;1.75;;;17.10;71.00;;;;;;4985862;28;95764;-51
2021/09/25 09:22:46;;;;;;;4.07;1.85;;;17.10;71.00;;;;;;4987207;28;95772;-49
2021/09/25 09:25:19;;;;;;;4.03;1.73;;;17.00;70.80;;;;;;5017703;28;95938;-52
2021/09/25 09:27:49;;;;;;;3.38;1.92;;;17.00;70.70;;;;;;4982027;28;95869;-50
2021/09/25 09:30:21;;;;;;;3.20;1.73;;;17.00;70.70;;;;;;4990782;28;95653;-51
2021/09/25 09:32:52;;;;;;;3.80;1.73;;;17.00;70.60;;;;;;4988054;28;95378;-51
2021/09/25 09:35:22;;;;;;;3.67;1.90;;;17.10;61.30;;;;;;4986693;28;95753;-50
2021/09/25 09:37:58;;;;;;;3.05;1.67;;;17.10;70.40;;;;;;4987183;28;97954;-51
2021/09/25 09:40:31;;;;;;;3.15;1.80;;;17.10;70.40;;;;;;4987200;28;95830;-51
2021/09/25 09:43:02;;;;;;;3.65;1.60;;;17.10;70.30;;;;;;4988185;28;95841;-51
2021/09/25 09:45:36;;;;;;;3.05;1.90;;;17.10;70.00;;;;;;4981289;28;95864;-49
2021/09/25 09:48:10;;;;;;;3.75;2.10;;;17.10;69.80;;;;;;4981114;28;95969;-53
2021/09/25 09:50:42;;;;;;;1.98;1.63;;;17.20;69.90;;;;;;4988462;28;95534;-51
2021/09/25 09:53:16;;;;;;;2.15;1.83;;;17.20;69.90;;;;;;4982987;28;95944;-51
2021/09/25 09:55:47;;;;;;;4.28;1.90;;;17.20;69.80;;;;;;4986278;28;96015;-53
2021/09/25 09:58:18;;;;;;;2.85;1.48;;;17.20;69.80;;;;;;4986780;28;95453;-53
2021/09/25 10:00:50;;;;;;;3.60;1.90;;;17.30;69.70;;;;;;4983907;28;95926;-52
2021/09/25 10:03:22;;;;;;;2.78;1.83;;;17.20;69.70;;;;;;4988751;28;95482;-53
2021/09/25 10:05:54;;;;;;;3.45;1.83;;;17.20;69.60;;;;;;4987006;28;96578;-51
2021/09/25 10:08:26;;;;;;;2.80;1.85;;;17.30;69.80;;;;;;4988398;28;95950;-51
2021/09/25 10:10:58;;;;;;;3.65;2.20;;;17.20;69.70;;;;;;4980445;28;95932;-50
2021/09/25 10:13:28;;;;;;;4.40;2.23;;;17.30;60.60;;;;;;4986488;28;95866;-50
2021/09/25 10:16:00;;;;;;;7.20;2.58;;;17.20;69.60;;;;;;4982338;28;95980;-51
2021/09/25 10:18:31;;;;;;;5.10;2.60;;;17.30;69.60;;;;;;4988429;28;96244;-51
2021/09/25 10:21:05;;;;;;;3.47;2.50;;;17.30;69.40;;;;;;4987818;28;95278;-51
2021/09/25 10:23:39;;;;;;;7.97;3.35;;;17.30;70.50;;;;;;4988693;28;95894;-51
2021/09/25 10:26:12;;;;;;;3.65;3.00;;;17.30;71.40;;;;;;4985395;28;95986;-52
2021/09/25 10:29:00;;;;;;;6.70;3.22;;;17.30;71.80;;;;;;4984099;28;98186;-50
2021/09/25 10:31:32;;;;;;;6.55;2.85;;;17.30;71.60;;;;;;4981193;28;95775;-52
2021/09/25 10:34:15;;;;;;;6.32;2.80;;;17.30;71.40;;;;;;4988773;28;95819;-52
2021/09/25 10:36:53;;;;;;;6.30;3.30;;;17.30;71.10;;;;;;4990231;28;95793;-51
2021/09/25 10:39:26;;;;;;;6.88;3.30;;;17.30;70.90;;;;;;4990961;28;95634;-50
2021/09/25 10:42:12;;;;;;;5.70;3.25;;;17.30;70.80;;;;;;4991076;28;95208;-50
2021/09/25 10:44:47;;;;;;;6.47;3.20;;;17.30;70.70;;;;;;4990313;28;95862;-53
2021/09/25 10:47:25;;;;;;;4.57;2.90;;;17.20;70.60;;;;;;4984542;28;96581;-52
2021/09/25 10:49:59;;;;;;;5.07;3.47;;;17.30;61.50;;;;;;4990576;28;95547;-51
2021/09/25 10:52:52;;;;;;;5.50;3.35;;;17.20;70.30;;;;;;4990677;28;95410;-52
2021/09/25 10:55:28;;;;;;;5.82;3.92;;;17.20;70.30;;;;;;4990190;28;95805;-52
2021/09/25 10:58:17;;;;;;;5.10;3.53;;;17.20;70.20;;;;;;4989073;28;96627;-54
2021/09/25 11:01:06;;;;;;;4.72;4.15;;;17.20;70.00;;;;;;4986279;28;97225;-49
2021/09/25 11:03:44;;;;;;;5.85;3.30;;;17.20;70.00;;;;;;4989444;28;95553;-52
2021/09/25 11:06:48;;;;;;;4.05;3.00;;;17.20;69.90;;;;;;4990112;28;95997;-51
2021/09/25 11:09:40;;;;;;;5.07;3.30;;;17.10;69.70;;;;;;4987068;28;95948;-52
2021/09/25 11:12:14;;;;;;;5.32;3.75;;;17.10;69.70;;;;;;4988853;28;96808;-52
2021/09/25 11:14:55;;;;;;;5.40;3.38;;;17.10;69.70;;;;;;4986800;28;96069;-51
2021/09/25 11:17:29;;;;;;;4.17;3.10;;;17.00;69.70;;;;;;4985148;28;95650;-54
2021/09/25 11:20:03;;;;;;;5.00;3.95;;;17.00;69.70;;;;;;4986925;28;96243;-55
2021/09/25 11:22:39;;;;;;;5.97;3.92;;;17.00;69.80;;;;;;4989885;28;95433;-51
2021/09/25 11:25:16;;;;;;;5.32;3.40;;;16.90;69.70;;;;;;4986225;28;95646;-53
2021/09/25 11:27:49;;;;;;;5.00;4.13;;;16.90;69.70;;;;;;4983851;28;95797;-51
2021/09/25 11:30:20;;;;;;;4.53;3.08;;;16.90;69.70;;;;;;4978339;28;96666;-52
2021/09/25 11:32:56;;;;;;;6.05;4.00;;;16.80;70.30;;;;;;4984393;28;97193;-54
2021/09/25 11:35:30;;;;;;;6.05;3.85;;;16.80;69.80;;;;;;4979163;28;95856;-51
2021/09/25 11:38:06;;;;;;;4.88;3.20;;;16.80;69.80;;;;;;4977285;28;96103;-55
2021/09/25 11:40:40;;;;;;;4.60;3.55;;;16.70;69.80;;;;;;4984006;28;95907;-52
2021/09/25 11:43:16;;;;;;;4.40;3.45;;;16.70;69.80;;;;;;4980124;28;95800;-52
2021/09/25 11:45:54;;;;;;;4.55;3.17;;;16.70;69.80;;;;;;4990007;28;95609;-52
2021/09/25 11:48:32;;;;;;;4.67;3.70;;;16.70;69.80;;;;;;4985316;28;95275;-52
2021/09/25 11:51:05;;;;;;;6.22;4.38;;;16.60;69.70;;;;;;4990170;28;96220;-57
2021/09/25 11:53:37;;;;;;;5.32;3.60;;;16.70;60.60;;;;;;4986458;28;98366;-53
2021/09/25 11:56:08;;;;;;;4.65;3.28;;;16.60;69.70;;;;;;4988589;28;95776;-52
2021/09/25 11:58:39;;;;;;;;;;;16.60;60.40;;;;;;5021213;27;96085;-51
2021/09/25 12:01:12;;;;;;;4.45;3.50;;;16.50;69.70;;;;;;4986705;28;96388;-56
2021/09/25 12:03:46;;;;;;;4.00;3.38;;;16.50;69.70;;;;;;4988763;28;95416;-55
2021/09/25 12:06:18;;;;;;;4.40;3.75;;;16.50;69.70;;;;;;4989428;28;95697;-53
2021/09/25 12:08:52;;;;;;;5.82;3.67;;;16.40;69.60;;;;;;4989473;28;98583;-55
2021/09/25 12:11:27;;;;;;;3.92;3.22;;;16.50;69.70;;;;;;4976715;28;96979;-55
2021/09/25 12:13:57;;;;;;;5.15;3.78;;;16.40;69.70;;;;;;4982959;28;95751;-55
2021/09/25 12:16:31;;;;;;;5.03;3.72;;;16.40;69.70;;;;;;4985267;28;95943;-55
2021/09/25 12:19:02;;;;;;;5.07;3.53;;;16.40;69.80;;;;;;4990756;28;95503;-55
2021/09/25 12:21:35;;;;;;;4.35;3.00;;;16.30;69.70;;;;;;4989526;28;95920;-55
2021/09/25 12:24:07;;;;;;;4.28;3.38;;;16.30;69.70;;;;;;4989304;28;95870;-54
2021/09/25 12:26:44;;;;;;;;;;;16.30;69.70;;;;;;4986443;28;95773;-55
2021/09/25 12:29:18;;;;;;;4.53;3.55;;;16.20;69.60;;;;;;4990620;28;95672;-54
2021/09/25 12:32:02;;;;;;;3.85;3.05;;;16.20;69.60;;;;;;4987105;28;96052;-55
2021/09/25 12:34:32;;;;;;;4.72;3.40;;;16.20;69.60;;;;;;4989024;28;95776;-54
2021/09/25 12:37:02;;;;;;;4.03;3.60;;;16.20;69.70;;;;;;4987740;28;96044;-55
2021/09/25 12:39:37;;;;;;;5.55;3.63;;;16.20;69.70;;;;;;4990042;28;95501;-53
2021/09/25 12:42:08;;;;;;;4.22;3.67;;;16.20;69.70;;;;;;4987722;28;97839;-54
2021/09/25 12:44:39;;;;;;;;;;;16.10;69.60;;;;;;4987775;28;95954;-54
2021/09/25 12:47:09;;;;;;;4.30;3.70;;;16.10;69.70;;;;;;4985801;28;96069;-56
2021/09/25 12:49:40;;;;;;;4.20;3.42;;;16.10;69.70;;;;;;4990480;28;95608;-52
2021/09/25 12:52:14;;;;;;;3.72;3.38;;;16.10;69.70;;;;;;4988210;28;95889;-57
2021/09/25 12:54:46;;;;;;;4.13;3.33;;;16.00;69.70;;;;;;4987452;28;95740;-56
2021/09/25 12:57:19;;;;;;;3.30;2.83;;;16.00;69.70;;;;;;4980166;28;95705;-54
2021/09/25 13:00:01;;;;;;;5.13;3.92;;;15.90;69.70;;;;;;4983316;28;95685;-55
2021/09/25 13:02:33;;;;;;;5.65;3.72;;;15.90;69.70;;;;;;4983229;28;95903;-55
2021/09/25 13:05:09;;;;;;;3.85;3.45;;;15.90;69.70;;;;;;4988515;28;95949;-55
2021/09/25 13:07:43;;;;;;;5.05;3.65;;;15.90;69.70;;;;;;4988330;28;95769;-54
2021/09/25 13:10:22;;;;;;;4.20;3.38;;;15.90;69.70;;;;;;4985079;28;95685;-54
2021/09/25 13:12:56;;;;;;;4.03;3.63;;;15.80;69.70;;;;;;4985233;28;95913;-54
2021/09/25 13:15:34;;;;;;;5.00;3.63;;;15.80;69.70;;;;;;4985061;28;97674;-55
2021/09/25 13:18:05;;;;;;;3.78;3.42;;;15.80;69.80;;;;;;5000987;28;95880;-54